Time;durP1;ratioP1;P1;durP2;ratioP2;P2;SDS_P1;SDS_P2;PMS_P1;PMS_P2;Temp;Humidity;BMP_temperature;BMP_pressure;BME280_temperature;BME280_humidity;BME280_pressure;Samples;Min_cycle;Max_cycle;Signal;HPM_P1;HPM_P2
2021/10/13 00:00:15;;;;;;;3.87;1.00;;;16.20;99.90;;;;;;5092634;28;20179;-71
2021/10/13 00:02:42;;;;;;;6.70;0.83;;;16.10;99.90;;;;;;5091351;28;20194;-70
2021/10/13 00:05:10;;;;;;;4.73;1.30;;;16.10;99.90;;;;;;5092307;28;20639;-70
2021/10/13 00:07:37;;;;;;;5.33;1.40;;;16.20;99.90;;;;;;5092639;28;20212;-73
2021/10/13 00:10:06;;;;;;;5.60;1.50;;;16.10;99.90;;;;;;5092271;28;20179;-71
2021/10/13 00:12:34;;;;;;;4.03;1.10;;;16.10;99.90;;;;;;5092075;28;20263;-70
2021/10/13 00:15:04;;;;;;;4.10;1.03;;;16.10;99.90;;;;;;5085840;28;20192;-69
2021/10/13 00:17:31;;;;;;;6.37;1.10;;;16.20;99.90;;;;;;5092200;28;20226;-71
2021/10/13 00:19:59;;;;;;;7.93;1.10;;;16.00;99.90;;;;;;5086475;28;20187;-71
2021/10/13 00:22:26;;;;;;;1.60;0.73;;;15.90;99.90;;;;;;5084974;28;20274;-71
2021/10/13 00:24:54;;;;;;;4.07;1.00;;;16.10;99.90;;;;;;5070667;28;20239;-70
2021/10/13 00:27:21;;;;;;;4.63;1.10;;;16.10;99.90;;;;;;5084365;28;20615;-71
2021/10/13 00:29:48;;;;;;;3.87;1.03;;;15.90;99.90;;;;;;5084077;28;20197;-74
2021/10/13 00:32:16;;;;;;;3.80;0.97;;;16.00;99.90;;;;;;5090727;28;20171;-75
2021/10/13 00:34:43;;;;;;;6.33;1.03;;;16.00;99.90;;;;;;5079858;28;20760;-71
2021/10/13 00:37:10;;;;;;;6.93;1.10;;;16.00;99.90;;;;;;5090072;28;20174;-72
2021/10/13 00:39:37;;;;;;;6.90;1.37;;;16.20;99.90;;;;;;5089781;28;20225;-70
2021/10/13 00:42:05;;;;;;;4.30;1.07;;;16.20;99.90;;;;;;5092035;28;20183;-70
2021/10/13 00:44:32;;;;;;;4.47;1.20;;;16.20;99.90;;;;;;5092064;28;20221;-70
2021/10/13 00:47:00;;;;;;;7.83;1.10;;;16.30;99.90;;;;;;5089344;28;20179;-70
2021/10/13 00:49:27;;;;;;;6.73;1.17;;;16.40;99.90;;;;;;5078515;28;20324;-71
2021/10/13 00:51:55;;;;;;;6.57;1.00;;;16.30;99.90;;;;;;5097829;28;20179;-70
2021/10/13 00:54:24;;;;;;;3.07;1.03;;;16.20;99.90;;;;;;5091541;28;20576;-71
2021/10/13 00:56:51;;;;;;;2.90;0.93;;;16.10;99.90;;;;;;5091843;28;20175;-71
2021/10/13 00:59:19;;;;;;;3.97;1.00;;;16.10;99.90;;;;;;5089801;28;20186;-71
2021/10/13 01:01:49;;;;;;;4.23;0.70;;;16.20;99.90;;;;;;5084686;28;20183;-72
2021/10/13 01:04:50;;;;;;;8.57;1.17;;;16.10;99.90;;;;;;5091908;28;20261;-72
2021/10/13 01:07:41;;;;;;;3.07;0.90;;;16.10;99.90;;;;;;5084360;28;20179;-72
2021/10/13 01:10:20;;;;;;;3.20;0.77;;;16.20;99.90;;;;;;5090579;28;20179;-72
2021/10/13 01:13:14;;;;;;;0.90;0.60;;;16.10;99.90;;;;;;5091773;28;20721;-69
2021/10/13 01:15:53;;;;;;;2.30;0.63;;;16.20;99.90;;;;;;5091371;28;20718;-70
2021/10/13 01:18:50;;;;;;;5.23;1.00;;;16.20;99.90;;;;;;5073995;28;20172;-71
2021/10/13 01:21:42;;;;;;;3.97;0.70;;;16.20;99.90;;;;;;5080818;28;20184;-70
2021/10/13 01:24:31;;;;;;;2.60;0.90;;;16.20;99.90;;;;;;5077112;28;20696;-71
2021/10/13 01:27:34;;;;;;;6.97;1.20;;;16.20;99.90;;;;;;5086374;28;20179;-69
2021/10/13 01:30:05;;;;;;;2.03;0.60;;;16.30;99.90;;;;;;5070266;28;20179;-70
2021/10/13 01:32:36;;;;;;;4.53;1.73;;;16.30;99.90;;;;;;5083966;28;20175;-70
2021/10/13 01:35:05;;;;;;;3.37;1.10;;;16.50;99.90;;;;;;5081561;28;20187;-71
2021/10/13 01:37:43;;;;;;;5.60;1.43;;;17.00;99.90;;;;;;5084991;28;20177;-70
2021/10/13 01:40:15;;;;;;;5.93;1.60;;;17.30;99.90;;;;;;5086101;28;20653;-71
2021/10/13 01:42:45;;;;;;;5.93;1.30;;;17.60;99.90;;;;;;5095231;28;20168;-70
2021/10/13 01:45:15;;;;;;;4.30;1.40;;;17.70;99.90;;;;;;5083993;28;20259;-72
2021/10/13 01:47:46;;;;;;;6.93;1.20;;;17.80;99.90;;;;;;5093520;28;20256;-73
2021/10/13 01:50:15;;;;;;;9.10;1.70;;;17.90;99.90;;;;;;5095110;28;20201;-71
2021/10/13 01:52:46;;;;;;;9.70;1.60;;;18.20;99.90;;;;;;5095447;28;20159;-71
2021/10/13 01:55:15;;;;;;;6.53;0.97;;;18.20;99.90;;;;;;5095286;28;20215;-72
2021/10/13 01:57:45;;;;;;;3.63;0.93;;;17.90;99.90;;;;;;5087272;28;20179;-72
2021/10/13 02:00:15;;;;;;;5.20;0.73;;;17.50;99.90;;;;;;5093889;28;20228;-69
2021/10/13 02:02:44;;;;;;;4.73;1.20;;;17.30;99.90;;;;;;5094537;28;20181;-72
2021/10/13 02:05:14;;;;;;;3.43;1.23;;;17.30;99.90;;;;;;5094808;28;20206;-70
2021/10/13 02:07:44;;;;;;;6.60;1.20;;;17.10;99.90;;;;;;5093256;28;20552;-68
2021/10/13 02:10:14;;;;;;;5.93;0.77;;;17.00;99.90;;;;;;5093350;28;20183;-72
2021/10/13 02:12:48;;;;;;;5.30;0.90;;;16.80;99.90;;;;;;5095008;28;20248;-73
2021/10/13 02:15:16;;;;;;;3.80;0.90;;;16.80;99.90;;;;;;5094935;28;20261;-70
2021/10/13 02:17:47;;;;;;;7.63;2.03;;;16.90;99.90;;;;;;5094131;28;20186;-71
2021/10/13 02:20:16;;;;;;;4.80;1.17;;;16.90;99.90;;;;;;5094426;28;20210;-70
2021/10/13 02:22:48;;;;;;;5.33;1.10;;;17.00;99.90;;;;;;5094433;28;20268;-70
2021/10/13 02:25:16;;;;;;;6.53;1.50;;;17.30;99.90;;;;;;5074338;28;20308;-71
2021/10/13 02:27:59;;;;;;;3.73;0.97;;;17.40;99.90;;;;;;5091643;28;20511;-70
2021/10/13 02:30:27;;;;;;;11.23;1.87;;;17.60;99.90;;;;;;5094693;28;20185;-73
2021/10/13 02:32:56;;;;;;;5.70;1.40;;;17.80;99.90;;;;;;5072705;28;20178;-73
2021/10/13 02:35:23;;;;;;;7.83;1.60;;;17.80;99.90;;;;;;5084837;28;20263;-71
2021/10/13 02:37:50;;;;;;;5.03;1.00;;;17.90;99.90;;;;;;5076300;28;20673;-72
2021/10/13 02:40:18;;;;;;;9.43;1.87;;;17.90;99.90;;;;;;5088913;28;20182;-72
2021/10/13 02:42:45;;;;;;;10.27;1.80;;;18.10;99.90;;;;;;5094046;28;20192;-76
2021/10/13 02:45:13;;;;;;;3.73;1.27;;;18.10;99.90;;;;;;5093706;28;20221;-77
2021/10/13 02:47:55;;;;;;;8.10;1.37;;;18.10;99.90;;;;;;5093781;28;20177;-70
2021/10/13 02:50:25;;;;;;;10.70;2.03;;;18.30;99.90;;;;;;5092046;28;20185;-73
2021/10/13 02:53:40;;;;;;;9.17;1.53;;;18.60;99.90;;;;;;5094012;28;20501;-73
2021/10/13 02:56:36;;;;;;;5.00;1.90;;;18.70;99.90;;;;;;5013538;28;20184;-72
2021/10/13 02:59:11;;;;;;;10.70;3.17;;;18.70;99.90;;;;;;5073957;28;20236;-72
2021/10/13 03:01:45;;;;;;;9.90;1.87;;;18.90;99.90;;;;;;5093220;28;20239;-73
2021/10/13 03:04:21;;;;;;;6.90;1.70;;;18.70;99.90;;;;;;5093516;28;20353;-73
2021/10/13 03:07:12;;;;;;;9.47;1.50;;;18.50;99.90;;;;;;5074131;28;20534;-77
2021/10/13 03:09:49;;;;;;;7.83;1.50;;;18.40;99.90;;;;;;5087675;28;20178;-75
2021/10/13 03:12:18;;;;;;;7.83;1.73;;;18.40;99.90;;;;;;5094179;28;20228;-75
2021/10/13 03:14:48;;;;;;;12.13;1.80;;;18.30;99.90;;;;;;5094045;28;20208;-77
2021/10/13 03:17:17;;;;;;;11.97;1.53;;;18.40;99.90;;;;;;5086556;28;20186;-81
2021/10/13 03:19:45;;;;;;;4.63;1.43;;;18.80;99.90;;;;;;5075737;28;20641;-77
2021/10/13 03:22:14;;;;;;;10.07;3.07;;;18.90;99.90;;;;;;5091879;28;20218;-74
2021/10/13 03:24:42;;;;;;;11.97;1.97;;;18.90;99.90;;;;;;5089808;28;20565;-79
2021/10/13 03:27:09;;;;;;;13.30;1.70;;;18.70;99.90;;;;;;5089829;28;20204;-81
2021/10/13 03:29:43;;;;;;;10.67;2.10;;;18.70;99.90;;;;;;5085581;28;20213;-79
2021/10/13 03:32:11;;;;;;;11.03;1.90;;;18.60;99.90;;;;;;5083197;28;20178;-77
2021/10/13 03:34:41;;;;;;;10.10;1.77;;;18.60;99.90;;;;;;5093529;28;20173;-78
2021/10/13 03:37:08;;;;;;;6.90;1.50;;;18.80;99.90;;;;;;5080428;28;20291;-81
2021/10/13 03:39:35;;;;;;;10.20;1.63;;;18.70;99.90;;;;;;5084342;28;20216;-75
2021/10/13 03:42:03;;;;;;;9.17;2.27;;;18.70;99.90;;;;;;5086778;28;20198;-74
2021/10/13 03:44:30;;;;;;;9.33;1.70;;;18.50;99.90;;;;;;5092665;28;20199;-78
2021/10/13 03:46:58;;;;;;;12.80;1.77;;;18.40;99.90;;;;;;5092248;28;20231;-77
2021/10/13 03:49:25;;;;;;;8.60;3.43;;;18.40;99.90;;;;;;5092510;28;20264;-77
2021/10/13 03:51:52;;;;;;;10.43;2.47;;;18.40;99.90;;;;;;5092334;28;20182;-74
2021/10/13 03:54:19;;;;;;;10.00;1.67;;;18.50;99.90;;;;;;5088851;28;20183;-78
2021/10/13 03:56:47;;;;;;;11.97;1.60;;;18.70;99.90;;;;;;5087165;28;20617;-77
2021/10/13 03:59:14;;;;;;;10.67;1.60;;;18.80;99.90;;;;;;5091153;28;20182;-76
2021/10/13 04:01:41;;;;;;;16.77;2.30;;;18.80;99.90;;;;;;5083406;28;20211;-76
2021/10/13 04:04:09;;;;;;;17.37;2.47;;;18.90;99.90;;;;;;5080952;28;21922;-74
2021/10/13 04:06:37;;;;;;;9.97;1.80;;;18.70;99.90;;;;;;5085766;28;20197;-79
2021/10/13 04:09:07;;;;;;;13.77;2.13;;;18.50;99.90;;;;;;5089329;28;20182;-77
2021/10/13 04:11:34;;;;;;;10.50;2.00;;;18.40;99.90;;;;;;5090884;28;20193;-80
2021/10/13 04:14:02;;;;;;;12.07;1.93;;;18.10;99.90;;;;;;5091613;28;20223;-76
2021/10/13 04:16:29;;;;;;;8.77;1.50;;;18.00;99.90;;;;;;5091469;28;20194;-76
2021/10/13 04:18:56;;;;;;;16.97;2.37;;;17.90;99.90;;;;;;5091910;28;20196;-77
2021/10/13 04:21:24;;;;;;;11.93;1.73;;;18.00;99.90;;;;;;5090548;28;20181;-73
2021/10/13 04:23:51;;;;;;;6.93;1.53;;;18.10;99.90;;;;;;5090141;28;20205;-74
2021/10/13 04:26:18;;;;;;;9.17;1.57;;;18.10;99.90;;;;;;5088279;28;20185;-77
2021/10/13 04:28:46;;;;;;;8.63;1.87;;;18.00;99.90;;;;;;5090318;28;20267;-75
2021/10/13 04:31:15;;;;;;;17.77;2.57;;;17.80;99.90;;;;;;5090175;28;20205;-78
2021/10/13 04:33:42;;;;;;;13.17;2.73;;;17.70;99.90;;;;;;5088567;28;20186;-75
2021/10/13 04:36:10;;;;;;;8.23;1.73;;;17.70;99.90;;;;;;5090146;28;20183;-77
2021/10/13 04:38:37;;;;;;;15.77;2.00;;;17.60;99.90;;;;;;5091581;28;20201;-74
2021/10/13 04:41:05;;;;;;;11.93;2.23;;;17.60;99.90;;;;;;5088722;28;20264;-70
2021/10/13 04:43:32;;;;;;;10.60;1.63;;;17.60;99.90;;;;;;5090543;28;20531;-69
2021/10/13 04:45:59;;;;;;;11.50;1.70;;;17.60;99.90;;;;;;5090596;28;20217;-73
2021/10/13 04:48:27;;;;;;;9.40;2.20;;;17.50;99.90;;;;;;5090974;28;20182;-75
2021/10/13 04:50:54;;;;;;;8.87;2.00;;;17.50;99.90;;;;;;5085799;28;20543;-75
2021/10/13 04:53:22;;;;;;;7.37;1.53;;;17.50;99.90;;;;;;5089952;28;20234;-72
2021/10/13 04:55:49;;;;;;;7.20;1.27;;;17.50;99.90;;;;;;5090534;28;20183;-73
2021/10/13 04:58:16;;;;;;;6.27;1.37;;;17.50;99.90;;;;;;5083812;28;20261;-73
2021/10/13 05:00:44;;;;;;;7.17;1.47;;;17.70;99.90;;;;;;5090182;28;20189;-71
2021/10/13 05:03:11;;;;;;;7.10;1.63;;;17.80;99.90;;;;;;5090762;28;20193;-73
2021/10/13 05:05:40;;;;;;;7.47;1.50;;;17.80;99.90;;;;;;5089662;28;20223;-79
2021/10/13 05:08:08;;;;;;;6.20;1.03;;;17.80;99.90;;;;;;5091004;28;20193;-73
2021/10/13 05:10:37;;;;;;;5.87;1.00;;;17.70;99.90;;;;;;5093177;28;20193;-75
2021/10/13 05:13:05;;;;;;;4.33;0.90;;;17.60;99.90;;;;;;5093897;28;20218;-79
2021/10/13 05:15:33;;;;;;;6.30;1.20;;;17.60;99.90;;;;;;5092568;28;20171;-75
2021/10/13 05:18:00;;;;;;;6.20;1.23;;;17.60;99.90;;;;;;5091803;28;20477;-75
2021/10/13 05:20:28;;;;;;;6.37;1.90;;;17.60;99.90;;;;;;5093760;28;20193;-78
2021/10/13 05:22:55;;;;;;;6.07;1.03;;;17.50;99.90;;;;;;5091290;28;20290;-72
2021/10/13 05:25:22;;;;;;;6.40;0.93;;;17.40;99.90;;;;;;5092569;28;20217;-75
2021/10/13 05:27:50;;;;;;;10.00;1.33;;;17.40;99.90;;;;;;5093819;28;20599;-76
2021/10/13 05:30:18;;;;;;;9.07;1.23;;;17.40;99.90;;;;;;5094746;28;20188;-78
2021/10/13 05:32:45;;;;;;;11.27;2.00;;;17.40;99.90;;;;;;5087151;28;20185;-77
2021/10/13 05:35:13;;;;;;;6.13;1.20;;;17.50;99.90;;;;;;5090752;28;20658;-78
2021/10/13 05:37:40;;;;;;;9.30;1.57;;;17.60;99.90;;;;;;5093927;28;20198;-76
2021/10/13 05:40:08;;;;;;;14.00;1.87;;;17.60;99.90;;;;;;5088550;28;20190;-77
2021/10/13 05:42:35;;;;;;;15.37;1.90;;;17.70;99.90;;;;;;5095524;28;20186;-73
2021/10/13 05:45:03;;;;;;;14.17;2.10;;;17.70;99.90;;;;;;5094832;28;21815;-76
2021/10/13 05:47:30;;;;;;;10.37;1.77;;;17.70;99.90;;;;;;5094010;28;20284;-76
2021/10/13 05:49:58;;;;;;;12.37;1.87;;;17.70;99.90;;;;;;5094162;28;20882;-77
2021/10/13 05:52:25;;;;;;;11.93;2.77;;;17.80;99.90;;;;;;5094364;28;20588;-77
2021/10/13 05:54:52;;;;;;;9.57;2.20;;;17.70;99.90;;;;;;5084560;28;20574;-77
2021/10/13 05:57:20;;;;;;;12.87;1.77;;;17.70;99.90;;;;;;5094941;28;20207;-79
2021/10/13 05:59:55;;;;;;;9.97;1.50;;;17.80;99.90;;;;;;5095065;28;20178;-75
2021/10/13 06:02:22;;;;;;;6.77;1.60;;;17.80;99.90;;;;;;5094672;28;20279;-74
2021/10/13 06:04:50;;;;;;;8.40;1.70;;;17.80;99.90;;;;;;5084699;28;20239;-77
2021/10/13 06:07:17;;;;;;;12.40;1.97;;;17.80;99.90;;;;;;5089528;28;20215;-74
2021/10/13 06:09:45;;;;;;;10.63;1.50;;;17.80;99.90;;;;;;5086272;28;20181;-77
2021/10/13 06:12:12;;;;;;;8.23;1.50;;;17.80;99.90;;;;;;5080119;28;20317;-76
2021/10/13 06:14:40;;;;;;;9.07;1.93;;;17.80;99.90;;;;;;5090395;28;20174;-77
2021/10/13 06:17:07;;;;;;;10.53;2.20;;;17.70;99.90;;;;;;5085061;28;20543;-76
2021/10/13 06:19:34;;;;;;;12.13;1.87;;;17.80;99.90;;;;;;5094536;28;20227;-74
2021/10/13 06:22:02;;;;;;;9.73;2.23;;;17.70;99.90;;;;;;5093423;28;20219;-75
2021/10/13 06:24:29;;;;;;;14.27;2.00;;;17.70;99.90;;;;;;5093685;28;20610;-78
2021/10/13 06:26:57;;;;;;;10.77;1.90;;;17.80;99.90;;;;;;5094554;28;20185;-82
2021/10/13 06:29:24;;;;;;;16.30;1.67;;;17.90;99.90;;;;;;5094613;28;20167;-73
2021/10/13 06:31:51;;;;;;;14.90;2.23;;;18.00;99.90;;;;;;5094070;28;20186;-74
2021/10/13 06:34:19;;;;;;;8.63;1.53;;;18.20;99.90;;;;;;5094442;28;20743;-74
2021/10/13 06:36:46;;;;;;;7.87;1.80;;;18.10;99.90;;;;;;5087851;28;20325;-72
2021/10/13 06:39:14;;;;;;;14.77;1.50;;;18.10;99.90;;;;;;5092178;28;20188;-77
2021/10/13 06:41:41;;;;;;;8.67;1.50;;;18.10;99.90;;;;;;5080611;28;20206;-73
2021/10/13 06:44:11;;;;;;;11.83;1.47;;;18.10;99.90;;;;;;5077232;28;20640;-75
2021/10/13 06:46:42;;;;;;;9.03;1.50;;;18.10;99.90;;;;;;5093197;28;20384;-77
2021/10/13 06:49:10;;;;;;;7.63;1.30;;;18.20;99.90;;;;;;5094387;28;20259;-78
2021/10/13 06:51:37;;;;;;;10.40;1.80;;;18.20;99.90;;;;;;5090743;28;20545;-74
2021/10/13 06:54:05;;;;;;;9.00;2.73;;;18.20;99.90;;;;;;5087354;28;20178;-73
2021/10/13 06:56:32;;;;;;;11.10;1.80;;;18.20;99.90;;;;;;5082284;28;20197;-78
2021/10/13 06:58:59;;;;;;;9.90;2.07;;;18.20;99.90;;;;;;5085622;28;20239;-78
2021/10/13 07:01:27;;;;;;;8.23;1.60;;;18.20;99.90;;;;;;5090892;28;20181;-72
2021/10/13 07:03:54;;;;;;;17.60;7.67;;;18.20;99.90;;;;;;5091958;28;20664;-76
2021/10/13 07:06:22;;;;;;;14.47;3.97;;;18.20;99.90;;;;;;5088765;28;20175;-78
2021/10/13 07:08:49;;;;;;;11.47;3.00;;;18.30;99.90;;;;;;5085996;28;20191;-77
2021/10/13 07:11:19;;;;;;;16.27;1.93;;;18.30;99.90;;;;;;5086101;28;20194;-73
2021/10/13 07:13:46;;;;;;;11.57;2.00;;;18.30;99.90;;;;;;5092293;28;20226;-77
2021/10/13 07:16:14;;;;;;;19.77;2.20;;;18.40;99.90;;;;;;5085233;28;20186;-75
2021/10/13 07:18:41;;;;;;;10.70;2.33;;;18.30;99.90;;;;;;5084275;28;20194;-73
2021/10/13 07:21:08;;;;;;;21.17;3.33;;;18.20;99.90;;;;;;5072256;28;20175;-75
2021/10/13 07:23:36;;;;;;;19.67;3.67;;;18.20;99.90;;;;;;5092052;28;20194;-77
2021/10/13 07:26:03;;;;;;;17.07;3.03;;;18.30;99.90;;;;;;5093180;28;20217;-77
2021/10/13 07:28:32;;;;;;;12.17;2.93;;;18.30;99.90;;;;;;5090977;28;20209;-77
2021/10/13 07:31:00;;;;;;;20.43;3.83;;;18.20;99.90;;;;;;5091800;28;20178;-74
2021/10/13 07:33:27;;;;;;;12.33;2.37;;;18.20;99.90;;;;;;5091815;28;20166;-76
2021/10/13 07:35:54;;;;;;;20.60;3.07;;;18.20;99.90;;;;;;5093395;28;20166;-74
2021/10/13 07:38:22;;;;;;;11.90;2.70;;;18.10;99.90;;;;;;5077864;28;20212;-76
2021/10/13 07:40:50;;;;;;;10.97;2.03;;;18.10;99.90;;;;;;5077290;28;20174;-76
2021/10/13 07:43:17;;;;;;;14.70;2.80;;;18.10;99.90;;;;;;5094269;28;20550;-77
2021/10/13 07:45:45;;;;;;;14.70;2.53;;;18.00;99.90;;;;;;5091852;28;20212;-75
2021/10/13 07:48:12;;;;;;;16.70;2.80;;;18.00;99.90;;;;;;5090768;28;20178;-73
2021/10/13 07:50:40;;;;;;;9.43;2.60;;;17.90;99.90;;;;;;5093302;28;20190;-72
2021/10/13 07:53:08;;;;;;;16.90;2.50;;;17.90;99.90;;;;;;5091580;28;20209;-77
2021/10/13 07:55:36;;;;;;;14.73;2.63;;;17.90;99.90;;;;;;5092947;28;20178;-78
2021/10/13 07:58:03;;;;;;;11.87;2.23;;;17.80;99.90;;;;;;5093146;28;20200;-79
2021/10/13 08:00:31;;;;;;;18.40;2.83;;;17.80;99.90;;;;;;5093340;28;20247;-79
2021/10/13 08:02:58;;;;;;;14.00;2.03;;;17.80;99.90;;;;;;5081081;28;20192;-74
2021/10/13 08:05:26;;;;;;;13.17;2.07;;;17.80;99.90;;;;;;5081730;28;20257;-74
2021/10/13 08:07:53;;;;;;;11.80;2.27;;;17.80;99.90;;;;;;5082385;28;20186;-76
2021/10/13 08:10:20;;;;;;;14.07;3.00;;;17.90;99.90;;;;;;5082860;28;20177;-71
2021/10/13 08:12:48;;;;;;;19.00;4.57;;;17.90;99.90;;;;;;5088474;28;20229;-78
2021/10/13 08:15:18;;;;;;;15.73;3.10;;;17.90;99.90;;;;;;5093009;28;20186;-79
2021/10/13 08:17:46;;;;;;;14.27;2.67;;;17.90;99.90;;;;;;5092554;28;20167;-75
2021/10/13 08:20:14;;;;;;;17.47;3.03;;;17.90;99.90;;;;;;5092964;28;20188;-75
2021/10/13 08:22:42;;;;;;;8.60;2.53;;;17.90;99.90;;;;;;5090708;28;20183;-80
2021/10/13 08:25:11;;;;;;;19.77;2.83;;;17.90;99.90;;;;;;5085755;28;20245;-74
2021/10/13 08:27:39;;;;;;;14.57;2.47;;;17.90;99.90;;;;;;5082345;28;20216;-75
2021/10/13 08:30:07;;;;;;;8.37;1.83;;;17.90;99.90;;;;;;5072974;28;20641;-75
2021/10/13 08:32:36;;;;;;;17.93;2.40;;;17.90;99.90;;;;;;5085330;28;20189;-75
2021/10/13 08:35:05;;;;;;;15.10;2.50;;;18.00;99.90;;;;;;5092203;28;20185;-75
2021/10/13 08:37:32;;;;;;;17.63;2.47;;;18.00;99.90;;;;;;5080538;28;20189;-76
2021/10/13 08:40:00;;;;;;;15.57;2.13;;;18.00;99.90;;;;;;5092391;28;20283;-77
2021/10/13 08:42:28;;;;;;;13.23;2.50;;;17.90;99.90;;;;;;5091887;28;20174;-73
2021/10/13 08:44:57;;;;;;;11.33;2.03;;;17.90;99.90;;;;;;5091400;28;20216;-75
2021/10/13 08:47:25;;;;;;;12.70;2.30;;;17.90;99.90;;;;;;5081414;28;20201;-79
2021/10/13 08:49:53;;;;;;;10.53;2.53;;;17.90;99.90;;;;;;5089429;28;20182;-80
2021/10/13 08:52:20;;;;;;;9.13;1.80;;;17.90;99.90;;;;;;5089685;28;20187;-76
2021/10/13 08:54:49;;;;;;;12.07;2.07;;;18.00;99.90;;;;;;5094484;28;20185;-78
2021/10/13 08:57:22;;;;;;;17.00;2.00;;;18.00;99.90;;;;;;5096129;28;20174;-76
2021/10/13 08:59:51;;;;;;;13.90;2.90;;;18.00;99.90;;;;;;5093730;28;20541;-76
2021/10/13 09:02:38;;;;;;;14.83;3.10;;;18.00;99.90;;;;;;5094191;28;20208;-76
2021/10/13 09:05:17;;;;;;;14.90;2.33;;;18.00;99.90;;;;;;5092077;28;20218;-75
2021/10/13 09:07:56;;;;;;;13.83;1.80;;;18.00;99.90;;;;;;5092276;28;20194;-77
2021/10/13 09:10:31;;;;;;;11.50;1.77;;;18.00;99.90;;;;;;5093712;28;20181;-76
2021/10/13 09:13:04;;;;;;;11.57;2.27;;;18.00;99.90;;;;;;5089809;28;20306;-74
2021/10/13 09:15:32;;;;;;;9.33;1.83;;;18.00;99.90;;;;;;5083016;28;20185;-72
2021/10/13 09:18:02;;;;;;;11.67;2.00;;;18.00;99.90;;;;;;5086750;28;20187;-74
2021/10/13 09:20:32;;;;;;;11.77;2.03;;;18.10;99.90;;;;;;5092466;28;20174;-76
2021/10/13 09:23:19;;;;;;;13.80;2.10;;;18.10;99.90;;;;;;5084534;28;20296;-73
2021/10/13 09:26:06;;;;;;;14.33;2.13;;;18.10;99.90;;;;;;5093815;28;20249;-75
2021/10/13 09:28:34;;;;;;;13.23;2.33;;;18.10;99.90;;;;;;5087949;28;20175;-73
2021/10/13 09:31:22;;;;;;;17.87;2.67;;;18.00;99.90;;;;;;5094915;28;20284;-78
2021/10/13 09:33:59;;;;;;;9.50;2.00;;;18.10;99.90;;;;;;5093919;28;20184;-77
2021/10/13 09:36:41;;;;;;;10.70;2.10;;;18.00;99.90;;;;;;5086077;28;20626;-75
2021/10/13 09:39:17;;;;;;;9.33;1.90;;;18.10;99.90;;;;;;5093001;28;20185;-73
2021/10/13 09:42:00;;;;;;;21.33;2.10;;;18.10;99.90;;;;;;5090049;28;20713;-76
2021/10/13 09:44:33;;;;;;;17.13;2.27;;;18.10;99.90;;;;;;5086999;28;20198;-76
2021/10/13 09:47:03;;;;;;;20.23;3.07;;;18.10;99.90;;;;;;5093656;28;20185;-75
2021/10/13 09:49:42;;;;;;;13.47;2.20;;;18.10;99.90;;;;;;5094631;28;20179;-74
2021/10/13 09:52:17;;;;;;;14.90;2.20;;;18.10;99.90;;;;;;5095602;28;20637;-75
2021/10/13 09:54:47;;;;;;;13.77;2.53;;;18.10;99.90;;;;;;5085199;28;20719;-77
2021/10/13 09:57:17;;;;;;;15.97;2.73;;;18.10;99.90;;;;;;5094332;28;20182;-76
2021/10/13 09:59:59;;;;;;;18.03;3.17;;;18.10;99.90;;;;;;5081237;28;20193;-73
2021/10/13 10:02:33;;;;;;;15.33;2.60;;;18.10;99.90;;;;;;5093927;28;20191;-74
2021/10/13 10:05:04;;;;;;;16.10;2.53;;;18.10;99.90;;;;;;5093252;28;20297;-73
2021/10/13 10:07:31;;;;;;;10.60;2.43;;;18.10;99.90;;;;;;5089152;28;20208;-74
2021/10/13 10:10:11;;;;;;;11.57;2.30;;;18.10;99.90;;;;;;5080385;28;20655;-74
2021/10/13 10:13:04;;;;;;;11.13;3.80;;;18.10;99.90;;;;;;5087221;28;20222;-75
2021/10/13 10:15:48;;;;;;;13.23;2.63;;;18.10;99.90;;;;;;5084907;28;20174;-76
2021/10/13 10:18:30;;;;;;;10.70;2.00;;;18.10;99.90;;;;;;5090648;28;20178;-74
2021/10/13 10:21:14;;;;;;;13.10;2.10;;;18.10;99.90;;;;;;5087145;28;20182;-74
2021/10/13 10:23:42;;;;;;;12.67;2.60;;;18.10;99.90;;;;;;5093499;28;20648;-75
2021/10/13 10:26:27;;;;;;;20.80;3.30;;;18.10;99.90;;;;;;5082895;28;20233;-73
2021/10/13 10:28:59;;;;;;;14.67;1.93;;;18.10;99.90;;;;;;5076699;28;20271;-76
2021/10/13 10:31:29;;;;;;;10.03;2.10;;;18.10;99.90;;;;;;5077308;28;20832;-76
2021/10/13 10:34:11;;;;;;;10.53;1.63;;;18.00;99.90;;;;;;5090880;28;20189;-73
2021/10/13 10:36:41;;;;;;;13.10;2.63;;;18.00;99.90;;;;;;5082884;28;20190;-74
2021/10/13 10:39:19;;;;;;;14.03;2.23;;;18.00;99.90;;;;;;5084049;28;20190;-76
2021/10/13 10:41:55;;;;;;;14.47;1.97;;;18.00;99.90;;;;;;5094012;28;20659;-77
2021/10/13 10:44:34;;;;;;;24.50;2.90;;;18.00;99.90;;;;;;5089709;28;20385;-74
2021/10/13 10:47:10;;;;;;;19.50;2.63;;;17.90;99.90;;;;;;5094455;28;20196;-73
2021/10/13 10:49:47;;;;;;;18.17;1.83;;;17.80;99.90;;;;;;5094169;28;20252;-75
2021/10/13 10:52:20;;;;;;;10.97;1.90;;;17.80;99.90;;;;;;5094482;28;20254;-73
2021/10/13 10:55:04;;;;;;;16.53;2.50;;;17.70;99.90;;;;;;5094060;28;20591;-74
2021/10/13 10:57:31;;;;;;;10.10;2.00;;;17.70;99.90;;;;;;5085709;28;20538;-78
2021/10/13 11:00:00;;;;;;;9.07;2.00;;;17.60;99.90;;;;;;5093765;28;20189;-73
2021/10/13 11:02:27;;;;;;;6.90;1.40;;;17.60;99.90;;;;;;5088926;28;20177;-72
2021/10/13 11:05:12;;;;;;;15.97;2.20;;;17.50;99.90;;;;;;5093746;28;20209;-74
2021/10/13 11:07:41;;;;;;;10.77;1.90;;;17.40;99.90;;;;;;5091750;28;20711;-77
2021/10/13 11:10:13;;;;;;;12.63;1.80;;;17.40;99.90;;;;;;5094468;28;20181;-73
2021/10/13 11:12:56;;;;;;;19.63;3.37;;;17.30;99.90;;;;;;5091827;28;20649;-76
2021/10/13 11:15:27;;;;;;;15.67;2.27;;;17.30;99.90;;;;;;5081338;28;20174;-77
2021/10/13 11:17:54;;;;;;;14.80;2.50;;;17.30;99.90;;;;;;5093493;28;20213;-75
2021/10/13 11:20:26;;;;;;;15.57;2.97;;;17.30;99.90;;;;;;5093807;28;20242;-75
2021/10/13 11:22:58;;;;;;;8.47;1.73;;;17.30;99.90;;;;;;5092208;28;20238;-73
2021/10/13 11:25:27;;;;;;;14.50;2.30;;;17.30;99.90;;;;;;5080551;28;20197;-75
2021/10/13 11:28:09;;;;;;;15.60;2.23;;;17.30;99.90;;;;;;5089796;28;20183;-72
2021/10/13 11:30:43;;;;;;;13.33;1.97;;;17.30;99.90;;;;;;5093204;28;20204;-78
2021/10/13 11:33:12;;;;;;;15.77;2.13;;;17.30;99.90;;;;;;5093440;28;20644;-76
2021/10/13 11:35:41;;;;;;;17.43;2.07;;;17.40;99.90;;;;;;5089729;28;20177;-74
2021/10/13 11:38:13;;;;;;;8.17;1.57;;;17.40;99.90;;;;;;5084432;28;20211;-76
2021/10/13 11:40:41;;;;;;;15.43;2.47;;;17.40;99.90;;;;;;5092143;28;20208;-73
2021/10/13 11:43:10;;;;;;;20.30;2.27;;;17.40;99.90;;;;;;5081068;28;20189;-75
2021/10/13 11:45:50;;;;;;;16.00;1.97;;;17.40;99.90;;;;;;5083989;28;20258;-73
2021/10/13 11:48:29;;;;;;;12.33;2.33;;;17.40;99.90;;;;;;5090785;28;20170;-75
2021/10/13 11:51:00;;;;;;;16.03;2.23;;;17.40;99.90;;;;;;5085856;28;20644;-73
2021/10/13 11:53:28;;;;;;;10.17;1.60;;;17.40;99.90;;;;;;5090339;28;20605;-82
2021/10/13 11:55:56;;;;;;;17.50;2.40;;;17.40;99.90;;;;;;5092636;28;20631;-77
2021/10/13 11:58:26;;;;;;;10.73;2.23;;;17.50;99.90;;;;;;5092290;28;20192;-76
2021/10/13 12:00:54;;;;;;;23.33;2.63;;;17.50;99.90;;;;;;5089001;28;20282;-75
2021/10/13 12:03:37;;;;;;;13.07;2.40;;;17.50;99.90;;;;;;5088582;28;20559;-75
2021/10/13 12:06:06;;;;;;;16.03;1.77;;;17.50;99.90;;;;;;5091364;28;20213;-74
2021/10/13 12:08:38;;;;;;;19.53;2.63;;;17.50;99.90;;;;;;5093004;28;20227;-75
2021/10/13 12:11:13;;;;;;;24.20;3.80;;;17.50;99.90;;;;;;5092343;28;20192;-75
2021/10/13 12:13:44;;;;;;;17.83;2.30;;;17.50;99.90;;;;;;5092964;28;20227;-74
2021/10/13 12:16:14;;;;;;;14.83;2.23;;;17.50;99.90;;;;;;5093092;28;20895;-77
2021/10/13 12:18:46;;;;;;;10.13;2.03;;;17.50;99.90;;;;;;5091112;28;20185;-74
2021/10/13 12:21:17;;;;;;;9.87;2.07;;;17.60;99.90;;;;;;5088293;28;20574;-81
2021/10/13 12:23:50;;;;;;;17.13;2.63;;;17.50;99.90;;;;;;5077838;28;20188;-76
2021/10/13 12:26:26;;;;;;;9.93;2.00;;;17.60;99.90;;;;;;5086531;28;20242;-77
2021/10/13 12:28:55;;;;;;;11.57;2.30;;;17.60;99.90;;;;;;5080305;28;20639;-74
2021/10/13 12:31:28;;;;;;;14.17;2.43;;;17.60;99.90;;;;;;5092838;28;20678;-74
2021/10/13 12:34:04;;;;;;;19.43;2.43;;;17.60;99.90;;;;;;5080088;28;20612;-75
2021/10/13 12:36:36;;;;;;;16.53;2.07;;;17.50;99.90;;;;;;5082052;28;20651;-77
2021/10/13 12:39:11;;;;;;;19.13;2.47;;;17.50;99.90;;;;;;5090151;28;20647;-72
2021/10/13 12:41:43;;;;;;;13.87;2.33;;;17.50;99.90;;;;;;5090486;28;20279;-80
2021/10/13 12:44:25;;;;;;;17.07;2.17;;;17.50;99.90;;;;;;5090206;28;20699;-74
2021/10/13 12:47:19;;;;;;;16.70;2.70;;;17.50;99.90;;;;;;5092751;28;20330;-75
2021/10/13 12:49:50;;;;;;;21.93;2.53;;;17.50;99.90;;;;;;5092404;28;20181;-75
2021/10/13 12:52:23;;;;;;;15.80;2.03;;;17.50;99.90;;;;;;5092798;28;20193;-75
2021/10/13 12:54:57;;;;;;;14.30;1.90;;;17.50;99.90;;;;;;5092476;28;20180;-77
2021/10/13 12:57:30;;;;;;;18.10;2.20;;;17.50;99.90;;;;;;5083552;28;20182;-80
2021/10/13 12:59:58;;;;;;;23.53;2.53;;;17.50;99.90;;;;;;5092640;28;21155;-79